createdAt,value
2023-06-10T00:01:39.090Z,8.02
2023-06-10T00:04:24.418Z,7.68
2023-06-10T00:07:09.794Z,6.13
2023-06-10T00:09:56.610Z,7.05
2023-06-10T00:12:43.470Z,7.37
2023-06-10T02:46:46.782Z,6.72
2023-06-10T02:49:32.591Z,7.00
2023-06-10T02:52:19.335Z,6.97
2023-06-10T02:55:05.111Z,7.05
2023-06-10T02:57:50.272Z,7.13
2023-06-10T03:48:05.621Z,7.25
2023-06-10T03:51:00.475Z,6.70
2023-06-10T03:53:46.102Z,7.47
2023-06-10T03:56:32.153Z,8.40
2023-06-10T03:59:17.828Z,7.55
2023-06-10T04:46:09.868Z,6.43
2023-06-10T04:48:56.093Z,7.45
2023-06-10T04:51:41.305Z,7.70
2023-06-10T04:54:27.404Z,7.45
2023-06-10T04:57:12.962Z,7.85
2023-06-10T04:59:58.134Z,8.75
2023-06-10T05:02:44.074Z,7.53
2023-06-10T05:05:29.438Z,6.27
2023-06-10T05:08:14.518Z,7.10
2023-06-10T05:10:59.843Z,8.00
2023-06-10T05:13:45.402Z,7.60
2023-06-10T05:16:30.506Z,6.90
2023-06-10T05:19:17.385Z,7.90
2023-06-10T05:22:03.489Z,6.60
2023-06-10T05:24:48.279Z,7.70
2023-06-10T05:27:33.862Z,7.50
2023-06-10T05:30:19.941Z,6.32
2023-06-10T05:33:05.579Z,8.20
2023-06-10T05:35:51.032Z,6.80
2023-06-10T05:38:36.369Z,6.95
2023-06-10T05:41:23.150Z,7.20
2023-06-10T05:44:08.425Z,6.72
2023-06-10T05:46:53.843Z,8.77
2023-06-10T05:49:39.338Z,7.65
2023-06-10T05:52:24.836Z,7.38
2023-06-10T05:55:11.870Z,7.80
2023-06-10T05:58:01.407Z,8.38
2023-06-10T06:00:46.706Z,6.87
2023-06-10T06:03:32.350Z,6.57
2023-06-10T06:06:17.768Z,8.63
2023-06-10T06:09:04.078Z,7.32
2023-06-10T06:11:49.197Z,7.18
2023-06-10T06:14:37.884Z,7.43
2023-06-10T06:17:22.738Z,9.00
2023-06-10T06:20:08.339Z,7.63
2023-06-10T06:22:53.398Z,9.43
2023-06-10T06:25:40.084Z,7.60
2023-06-10T06:28:30.240Z,8.13
2023-06-10T06:31:15.800Z,9.65
2023-06-10T06:34:01.495Z,7.95
2023-06-10T06:36:46.689Z,8.10
2023-06-10T06:39:31.693Z,8.13
2023-06-10T06:42:17.564Z,8.43
2023-06-10T06:45:15.390Z,8.02
2023-06-10T06:48:01.403Z,8.38
2023-06-10T06:50:47.706Z,8.70
2023-06-10T06:53:32.993Z,7.90
2023-06-10T06:56:20.174Z,8.03
2023-06-10T06:59:06.013Z,8.13
2023-06-10T07:01:51.413Z,7.63
2023-06-10T07:04:36.649Z,8.93
2023-06-10T07:07:21.826Z,10.52
2023-06-10T07:10:07.196Z,8.40
2023-06-10T07:12:52.346Z,9.48
2023-06-10T07:15:37.481Z,8.05
2023-06-10T07:18:22.880Z,7.18
2023-06-10T07:21:07.987Z,9.75
2023-06-10T07:23:54.960Z,8.80
2023-06-10T07:26:40.191Z,10.15
2023-06-10T07:29:25.541Z,7.93
2023-06-10T07:32:10.929Z,9.45
2023-06-10T07:34:56.168Z,8.45
2023-06-10T07:37:41.439Z,9.00
2023-06-10T07:40:26.924Z,9.50
2023-06-10T07:43:13.676Z,8.43
2023-06-10T07:45:58.837Z,7.57
2023-06-10T07:48:44.320Z,8.57
2023-06-10T07:51:29.796Z,9.47
2023-06-10T07:54:17.441Z,8.20
2023-06-10T07:57:03.993Z,8.60
2023-06-10T07:59:49.944Z,9.00
2023-06-10T08:02:35.399Z,9.13
2023-06-10T08:05:21.879Z,8.93
2023-06-10T08:08:07.173Z,8.40
2023-06-10T08:10:52.222Z,9.00
2023-06-10T08:13:37.637Z,9.07
2023-06-10T08:16:22.778Z,9.02
2023-06-10T08:19:10.542Z,8.67
2023-06-10T08:21:55.739Z,9.73
2023-06-10T08:24:40.804Z,9.20
2023-06-10T08:27:26.787Z,8.02
2023-06-10T08:30:14.215Z,8.02
2023-06-10T08:33:00.664Z,8.70
2023-06-10T08:35:45.773Z,8.88
2023-06-10T08:38:30.703Z,8.18
2023-06-10T08:41:17.951Z,8.73
2023-06-10T08:44:10.676Z,8.80
2023-06-10T08:47:04.970Z,7.60
2023-06-10T08:49:50.269Z,9.45
2023-06-10T08:52:36.614Z,8.25
2023-06-10T08:55:32.362Z,8.05
2023-06-10T08:58:18.338Z,8.48
2023-06-10T09:01:04.281Z,10.83
2023-06-10T09:03:50.228Z,9.18
2023-06-10T09:06:35.588Z,6.88
2023-06-10T09:09:21.414Z,7.13
2023-06-10T09:12:07.361Z,9.70
2023-06-10T09:14:52.886Z,8.20
2023-06-10T09:17:39.002Z,8.32
2023-06-10T09:20:24.362Z,11.50
2023-06-10T09:23:09.918Z,8.20
2023-06-10T09:26:01.333Z,7.93
2023-06-10T09:28:51.084Z,11.67
2023-06-10T09:31:36.866Z,7.75
2023-06-10T09:34:26.633Z,8.55
2023-06-10T09:37:14.572Z,7.28
2023-06-10T09:40:04.485Z,8.07
2023-06-10T09:43:00.228Z,9.00
2023-06-10T09:45:45.576Z,9.90
2023-06-10T09:48:30.994Z,8.63
2023-06-10T09:51:18.285Z,7.57
2023-06-10T09:54:04.290Z,8.93
2023-06-10T09:56:51.157Z,7.27
2023-06-10T09:59:38.362Z,7.90
2023-06-10T10:02:23.558Z,9.48
2023-06-10T10:05:09.725Z,8.07
2023-06-10T10:07:57.586Z,7.30
2023-06-10T10:10:42.943Z,8.13
2023-06-10T10:13:30.271Z,8.52
2023-06-10T10:16:19.394Z,6.80
2023-06-10T10:19:09.674Z,6.82
2023-06-10T10:21:56.129Z,7.07
2023-06-10T10:24:50.122Z,7.83
2023-06-10T10:27:36.935Z,8.77
2023-06-10T10:30:22.269Z,9.30
2023-06-10T10:33:13.535Z,6.50
2023-06-10T10:35:59.283Z,8.48
2023-06-10T10:38:47.515Z,7.73
2023-06-10T10:41:34.468Z,9.27
2023-06-10T10:44:20.311Z,8.07
2023-06-10T10:47:09.159Z,7.50
2023-06-10T10:49:54.967Z,7.80
2023-06-10T10:52:58.831Z,7.27
2023-06-10T10:55:58.638Z,6.40
2023-06-10T10:58:44.432Z,7.22
2023-06-10T11:01:40.699Z,8.13
2023-06-10T11:04:28.171Z,11.60
2023-06-10T11:07:16.776Z,6.70
2023-06-10T11:10:12.820Z,8.65
2023-06-10T11:12:58.468Z,7.03
2023-06-10T11:15:48.320Z,8.60
2023-06-10T11:18:40.353Z,7.07
2023-06-10T11:21:28.789Z,7.60
2023-06-10T11:24:17.759Z,10.40
2023-06-10T11:27:19.647Z,7.35
2023-06-10T11:30:05.273Z,6.80
2023-06-10T11:32:53.202Z,9.13
2023-06-10T11:35:38.483Z,6.37
2023-06-10T11:38:23.938Z,6.97
2023-06-10T11:41:09.459Z,6.90
2023-06-10T11:43:56.995Z,6.13
2023-06-10T11:46:44.115Z,6.95
2023-06-10T11:49:29.914Z,8.30
2023-06-10T11:52:14.817Z,7.65
2023-06-10T11:55:00.171Z,8.57
2023-06-10T11:57:45.324Z,6.25
2023-06-10T12:00:30.268Z,5.72
2023-06-10T12:03:16.090Z,5.70
2023-06-10T12:06:02.307Z,5.95
2023-06-10T12:08:47.903Z,5.63
2023-06-10T12:11:34.050Z,5.78
2023-06-10T12:14:38.071Z,6.63
2023-06-10T12:17:25.129Z,6.33
2023-06-10T12:20:25.181Z,6.22
2023-06-10T12:23:10.924Z,5.65
2023-06-10T12:25:57.853Z,5.78
2023-06-10T12:28:52.113Z,7.32
2023-06-10T12:31:53.572Z,6.07
2023-06-10T12:34:40.051Z,6.03
2023-06-10T12:37:25.532Z,6.00
2023-06-10T12:40:11.994Z,6.10
2023-06-10T12:42:57.405Z,5.90
2023-06-10T12:45:45.905Z,5.70
2023-06-10T12:48:31.486Z,6.18
2023-06-10T12:51:17.278Z,5.22
2023-06-10T12:54:02.769Z,6.28
2023-06-10T12:56:47.827Z,7.50
2023-06-10T12:59:34.589Z,6.73
2023-06-10T13:02:25.673Z,5.95
2023-06-10T13:05:12.948Z,5.22
2023-06-10T13:08:00.742Z,5.40
2023-06-10T13:10:46.373Z,6.22
2023-06-10T13:13:31.529Z,6.10
2023-06-10T13:16:17.269Z,5.28
2023-06-10T13:19:03.793Z,6.63
2023-06-10T13:21:49.271Z,5.00
2023-06-10T13:24:34.451Z,5.82
2023-06-10T13:27:20.349Z,5.23
2023-06-10T13:30:07.234Z,6.35
2023-06-10T13:32:53.244Z,5.40
2023-06-10T13:35:39.325Z,6.65
2023-06-10T13:38:24.354Z,6.18
2023-06-10T13:41:11.766Z,5.60
2023-06-10T13:43:57.373Z,5.70
2023-06-10T13:46:43.593Z,6.82
2023-06-10T13:49:29.663Z,5.40
2023-06-10T13:52:15.121Z,5.15
2023-06-10T13:55:00.428Z,5.43
2023-06-10T13:57:45.848Z,5.25
2023-06-10T14:00:31.253Z,6.03
2023-06-10T14:03:16.723Z,4.93
2023-06-10T14:06:02.879Z,6.13
2023-06-10T14:08:50.694Z,4.90
2023-06-10T14:11:36.387Z,5.78
2023-06-10T14:14:21.251Z,5.70
2023-06-10T14:17:06.996Z,4.90
2023-06-10T14:19:52.030Z,6.95
2023-06-10T14:22:37.506Z,5.50
2023-06-10T14:25:23.816Z,5.55
2023-06-10T14:28:09.224Z,5.20
2023-06-10T14:30:54.498Z,5.65
2023-06-10T14:33:40.868Z,5.30
2023-06-10T14:36:26.096Z,4.93
2023-06-10T14:39:11.386Z,5.93
2023-06-10T14:41:56.826Z,6.93
2023-06-10T14:44:42.065Z,5.32
2023-06-10T14:47:27.522Z,4.85
2023-06-10T14:50:12.967Z,5.30
2023-06-10T14:52:58.473Z,4.68
2023-06-10T14:55:43.476Z,5.63
2023-06-10T14:58:28.761Z,5.70
2023-06-10T15:01:14.095Z,4.70
2023-06-10T15:03:59.530Z,6.87
2023-06-10T15:06:45.003Z,5.82
2023-06-10T15:09:30.819Z,5.88
2023-06-10T15:12:15.732Z,7.10
2023-06-10T15:15:00.856Z,4.80
2023-06-10T15:17:46.860Z,5.23
2023-06-10T15:20:32.626Z,6.18
2023-06-10T15:23:18.182Z,5.45
2023-06-10T15:26:03.828Z,5.53
2023-06-10T15:28:49.388Z,4.60
2023-06-10T15:31:35.098Z,5.77
2023-06-10T15:34:20.379Z,5.50
2023-06-10T15:37:06.067Z,5.30
2023-06-10T15:39:51.127Z,4.90
2023-06-10T15:42:36.921Z,5.22
2023-06-10T15:45:22.306Z,5.20
2023-06-10T15:48:09.407Z,5.10
2023-06-10T15:50:54.702Z,4.45
2023-06-10T15:53:39.975Z,6.78
2023-06-10T15:56:26.161Z,4.65
2023-06-10T15:59:12.870Z,4.90
2023-06-10T16:01:59.199Z,4.60
2023-06-10T16:04:44.105Z,5.13
2023-06-10T16:07:29.412Z,5.63
2023-06-10T16:10:16.165Z,5.07
2023-06-10T16:13:01.493Z,5.37
2023-06-10T16:15:46.487Z,3.97
2023-06-10T16:18:32.290Z,4.72
2023-06-10T16:21:17.408Z,4.65
2023-06-10T16:24:03.942Z,5.15
2023-06-10T16:26:49.605Z,4.60
2023-06-10T16:29:34.882Z,4.55
2023-06-10T16:32:20.378Z,5.07
2023-06-10T16:35:06.263Z,4.88
2023-06-10T16:37:51.260Z,5.20
2023-06-10T16:40:37.144Z,5.17
2023-06-10T16:43:24.020Z,4.53
2023-06-10T16:46:09.692Z,5.05
2023-06-10T16:48:54.980Z,6.15
2023-06-10T16:51:40.610Z,5.90
2023-06-10T16:54:25.901Z,6.07
2023-06-10T16:57:11.630Z,4.78
2023-06-10T16:59:56.880Z,6.28
2023-06-10T17:02:42.218Z,4.40
2023-06-10T17:05:28.952Z,4.70
2023-06-10T17:08:14.308Z,6.03
2023-06-10T17:10:59.785Z,4.30
2023-06-10T17:13:46.084Z,4.13
2023-06-10T17:16:31.900Z,5.88
2023-06-10T17:19:17.352Z,4.50
2023-06-10T17:22:03.126Z,4.77
2023-06-10T17:24:48.626Z,5.18
2023-06-10T17:27:33.839Z,4.80
2023-06-10T17:30:19.647Z,6.25
2023-06-10T17:33:05.023Z,4.68
2023-06-10T17:35:51.165Z,4.60
2023-06-10T17:38:36.834Z,4.53
2023-06-10T17:41:22.090Z,4.55
2023-06-10T17:44:07.491Z,5.75
2023-06-10T17:46:52.878Z,4.40
2023-06-10T17:49:38.188Z,4.40
2023-06-10T17:52:23.653Z,6.05
2023-06-10T17:55:09.427Z,4.15
2023-06-10T17:57:55.151Z,4.80
2023-06-10T18:16:30.506Z,4.45
2023-06-10T18:19:16.576Z,4.80
2023-06-10T18:22:02.065Z,5.25
2023-06-10T18:24:47.482Z,6.50
2023-06-10T18:27:33.781Z,4.55
2023-06-10T18:30:19.329Z,4.53
2023-06-10T18:33:04.466Z,4.57
2023-06-10T18:35:49.903Z,4.88
2023-06-10T18:38:35.261Z,5.28
2023-06-10T18:41:20.416Z,4.18
2023-06-10T18:44:06.125Z,5.32
2023-06-10T18:46:51.446Z,4.93
2023-06-10T18:49:36.644Z,5.15
2023-06-10T18:52:22.119Z,5.30
2023-06-10T18:55:07.958Z,4.63
2023-06-10T18:57:53.226Z,5.75
2023-06-10T19:00:38.220Z,3.97
2023-06-10T19:03:23.930Z,5.53
2023-06-10T19:06:09.337Z,4.25
2023-06-10T19:08:55.091Z,4.88
2023-06-10T19:11:40.523Z,4.60
2023-06-10T19:14:25.925Z,5.13
2023-06-10T19:17:11.486Z,5.18
2023-06-10T19:19:56.880Z,6.05
2023-06-10T19:22:41.978Z,6.55
2023-06-10T19:25:27.316Z,5.40
2023-06-10T19:28:13.549Z,5.10
2023-06-10T19:30:58.804Z,5.22
2023-06-10T19:33:44.256Z,6.32
2023-06-10T19:36:29.801Z,4.72
2023-06-10T19:39:14.865Z,5.13
2023-06-10T19:42:00.694Z,6.33
2023-06-10T19:44:45.922Z,4.63
2023-06-10T19:47:31.471Z,5.88
2023-06-10T19:50:16.806Z,4.65
2023-06-10T19:53:02.049Z,4.30
2023-06-10T19:55:47.827Z,5.70
2023-06-10T19:58:33.226Z,5.63
2023-06-10T20:01:18.664Z,6.28
2023-06-10T20:04:05.763Z,4.25
2023-06-10T20:06:51.682Z,5.43
2023-06-10T20:09:37.014Z,5.13
2023-06-10T20:12:22.044Z,5.40
2023-06-10T20:15:08.035Z,4.18
2023-06-10T20:17:53.725Z,5.15
2023-06-10T20:20:38.605Z,5.85
2023-06-10T20:23:23.631Z,4.17
2023-06-10T20:26:09.010Z,6.13
2023-06-10T20:28:54.457Z,5.30
2023-06-10T20:31:39.948Z,4.53
2023-06-10T20:34:24.806Z,5.47
2023-06-10T20:37:10.680Z,4.50
2023-06-10T20:39:56.028Z,5.20
2023-06-10T20:42:41.609Z,4.05
2023-06-10T20:45:26.535Z,4.75
2023-06-10T20:48:11.852Z,5.30
2023-06-10T20:50:57.272Z,4.37
2023-06-10T20:53:42.749Z,3.97
2023-06-10T20:56:28.258Z,4.15
2023-06-10T20:59:13.958Z,4.55
2023-06-10T21:47:36.881Z,4.70
2023-06-10T21:50:22.138Z,4.10
2023-06-10T21:53:07.182Z,3.53
2023-06-10T21:55:52.497Z,4.35
2023-06-10T21:58:38.228Z,5.07
2023-06-10T22:01:23.481Z,5.88
2023-06-10T22:04:09.023Z,4.03
2023-06-10T22:06:54.796Z,4.25
2023-06-10T22:09:47.634Z,4.57
2023-06-10T22:12:32.731Z,4.20
2023-06-10T23:02:33.665Z,4.55
2023-06-10T23:05:19.334Z,3.80
2023-06-10T23:08:04.559Z,4.22
2023-06-10T23:10:50.085Z,3.60
2023-06-10T23:13:35.620Z,3.38
